sensor_id;sensor_type;location;lat;lon;timestamp;P1;durP1;ratioP1;P2;durP2;ratioP2
27491;SDS011;14927;51.210;6.838;2024-03-08T00:02:35;24.13;;;15.77;;
27491;SDS011;14927;51.210;6.838;2024-03-08T00:05:20;21.80;;;15.27;;
27491;SDS011;14927;51.210;6.838;2024-03-08T00:08:05;26.23;;;16.33;;
27491;SDS011;14927;51.210;6.838;2024-03-08T00:10:53;23.52;;;15.63;;
27491;SDS011;14927;51.210;6.838;2024-03-08T00:13:38;23.65;;;15.63;;
27491;SDS011;14927;51.210;6.838;2024-03-08T00:16:23;21.83;;;15.35;;
27491;SDS011;14927;51.210;6.838;2024-03-08T00:19:07;23.08;;;15.45;;
27491;SDS011;14927;51.210;6.838;2024-03-08T00:21:53;22.55;;;15.25;;
27491;SDS011;14927;51.210;6.838;2024-03-08T00:24:39;27.27;;;16.90;;
27491;SDS011;14927;51.210;6.838;2024-03-08T00:27:23;29.60;;;16.55;;
27491;SDS011;14927;51.210;6.838;2024-03-08T00:30:08;24.77;;;15.98;;
27491;SDS011;14927;51.210;6.838;2024-03-08T00:32:54;22.90;;;15.60;;
27491;SDS011;14927;51.210;6.838;2024-03-08T00:35:39;26.42;;;16.25;;
27491;SDS011;14927;51.210;6.838;2024-03-08T00:38:24;24.85;;;16.30;;
27491;SDS011;14927;51.210;6.838;2024-03-08T00:41:09;27.25;;;15.98;;
27491;SDS011;14927;51.210;6.838;2024-03-08T00:43:53;28.00;;;16.35;;
27491;SDS011;14927;51.210;6.838;2024-03-08T00:46:38;26.45;;;16.20;;
27491;SDS011;14927;51.210;6.838;2024-03-08T00:49:23;22.48;;;16.23;;
27491;SDS011;14927;51.210;6.838;2024-03-08T00:52:08;23.15;;;16.50;;
27491;SDS011;14927;51.210;6.838;2024-03-08T00:54:53;25.27;;;16.10;;
27491;SDS011;14927;51.210;6.838;2024-03-08T00:57:38;25.33;;;15.98;;
27491;SDS011;14927;51.210;6.838;2024-03-08T01:00:23;30.95;;;17.45;;
27491;SDS011;14927;51.210;6.838;2024-03-08T01:03:08;23.38;;;16.30;;
27491;SDS011;14927;51.210;6.838;2024-03-08T01:05:52;25.67;;;17.10;;
27491;SDS011;14927;51.210;6.838;2024-03-08T01:08:38;28.25;;;15.80;;
27491;SDS011;14927;51.210;6.838;2024-03-08T01:11:24;24.48;;;16.55;;
27491;SDS011;14927;51.210;6.838;2024-03-08T01:14:09;24.58;;;16.65;;
27491;SDS011;14927;51.210;6.838;2024-03-08T01:16:53;24.73;;;16.50;;
27491;SDS011;14927;51.210;6.838;2024-03-08T01:19:38;25.83;;;17.17;;
27491;SDS011;14927;51.210;6.838;2024-03-08T01:22:23;24.30;;;16.92;;
27491;SDS011;14927;51.210;6.838;2024-03-08T01:25:07;26.45;;;16.88;;
27491;SDS011;14927;51.210;6.838;2024-03-08T01:27:52;24.27;;;16.45;;
27491;SDS011;14927;51.210;6.838;2024-03-08T01:30:37;21.83;;;16.60;;
27491;SDS011;14927;51.210;6.838;2024-03-08T01:33:25;24.10;;;16.42;;
27491;SDS011;14927;51.210;6.838;2024-03-08T01:36:10;28.25;;;16.98;;
27491;SDS011;14927;51.210;6.838;2024-03-08T01:38:59;23.90;;;16.63;;
27491;SDS011;14927;51.210;6.838;2024-03-08T01:41:43;25.13;;;16.33;;
27491;SDS011;14927;51.210;6.838;2024-03-08T01:44:28;26.00;;;16.98;;
27491;SDS011;14927;51.210;6.838;2024-03-08T01:47:12;28.25;;;17.60;;
27491;SDS011;14927;51.210;6.838;2024-03-08T01:49:57;25.13;;;17.15;;
27491;SDS011;14927;51.210;6.838;2024-03-08T01:52:42;28.73;;;18.02;;
27491;SDS011;14927;51.210;6.838;2024-03-08T01:55:27;26.20;;;16.95;;
27491;SDS011;14927;51.210;6.838;2024-03-08T01:58:11;25.58;;;17.50;;
27491;SDS011;14927;51.210;6.838;2024-03-08T02:00:59;27.27;;;17.20;;
27491;SDS011;14927;51.210;6.838;2024-03-08T02:03:43;27.75;;;17.70;;
27491;SDS011;14927;51.210;6.838;2024-03-08T02:06:28;29.30;;;18.02;;
27491;SDS011;14927;51.210;6.838;2024-03-08T02:09:13;25.85;;;17.48;;
27491;SDS011;14927;51.210;6.838;2024-03-08T02:11:58;26.27;;;17.40;;
27491;SDS011;14927;51.210;6.838;2024-03-08T02:14:42;28.08;;;18.95;;
27491;SDS011;14927;51.210;6.838;2024-03-08T02:17:28;27.65;;;17.98;;
27491;SDS011;14927;51.210;6.838;2024-03-08T02:20:16;27.15;;;17.98;;
27491;SDS011;14927;51.210;6.838;2024-03-08T02:23:03;32.75;;;19.33;;
27491;SDS011;14927;51.210;6.838;2024-03-08T02:25:48;31.90;;;19.05;;
27491;SDS011;14927;51.210;6.838;2024-03-08T02:28:32;29.17;;;19.73;;
27491;SDS011;14927;51.210;6.838;2024-03-08T02:31:18;30.60;;;19.98;;
27491;SDS011;14927;51.210;6.838;2024-03-08T02:34:02;34.88;;;20.30;;
27491;SDS011;14927;51.210;6.838;2024-03-08T02:36:47;33.15;;;20.65;;
27491;SDS011;14927;51.210;6.838;2024-03-08T02:39:31;26.23;;;18.13;;
27491;SDS011;14927;51.210;6.838;2024-03-08T02:42:16;30.17;;;18.65;;
27491;SDS011;14927;51.210;6.838;2024-03-08T02:45:01;28.10;;;17.92;;
27491;SDS011;14927;51.210;6.838;2024-03-08T02:47:46;31.67;;;18.38;;
27491;SDS011;14927;51.210;6.838;2024-03-08T02:50:33;28.33;;;18.88;;
27491;SDS011;14927;51.210;6.838;2024-03-08T02:53:20;29.83;;;19.27;;
27491;SDS011;14927;51.210;6.838;2024-03-08T02:56:05;33.05;;;19.33;;
27491;SDS011;14927;51.210;6.838;2024-03-08T02:58:54;26.63;;;18.33;;
27491;SDS011;14927;51.210;6.838;2024-03-08T03:01:39;26.65;;;17.60;;
27491;SDS011;14927;51.210;6.838;2024-03-08T03:04:24;28.40;;;18.65;;
27491;SDS011;14927;51.210;6.838;2024-03-08T03:07:09;26.98;;;18.08;;
27491;SDS011;14927;51.210;6.838;2024-03-08T03:09:54;28.08;;;18.15;;
27491;SDS011;14927;51.210;6.838;2024-03-08T03:12:39;28.63;;;18.52;;
27491;SDS011;14927;51.210;6.838;2024-03-08T03:15:23;28.60;;;19.50;;
27491;SDS011;14927;51.210;6.838;2024-03-08T03:18:08;30.52;;;19.65;;
27491;SDS011;14927;51.210;6.838;2024-03-08T03:20:53;28.73;;;18.45;;
27491;SDS011;14927;51.210;6.838;2024-03-08T03:23:38;27.70;;;17.83;;
27491;SDS011;14927;51.210;6.838;2024-03-08T03:29:12;29.45;;;17.17;;
27491;SDS011;14927;51.210;6.838;2024-03-08T03:31:57;28.02;;;18.15;;
27491;SDS011;14927;51.210;6.838;2024-03-08T03:34:42;27.77;;;18.73;;
27491;SDS011;14927;51.210;6.838;2024-03-08T03:37:27;31.08;;;19.25;;
27491;SDS011;14927;51.210;6.838;2024-03-08T03:40:12;29.45;;;18.92;;
27491;SDS011;14927;51.210;6.838;2024-03-08T03:42:57;27.63;;;18.75;;
27491;SDS011;14927;51.210;6.838;2024-03-08T03:45:41;27.33;;;18.83;;
27491;SDS011;14927;51.210;6.838;2024-03-08T03:48:26;28.95;;;18.65;;
27491;SDS011;14927;51.210;6.838;2024-03-08T03:51:11;28.63;;;19.35;;
27491;SDS011;14927;51.210;6.838;2024-03-08T03:53:55;32.53;;;19.30;;
27491;SDS011;14927;51.210;6.838;2024-03-08T03:56:41;26.77;;;17.58;;
27491;SDS011;14927;51.210;6.838;2024-03-08T03:59:26;33.58;;;19.83;;
27491;SDS011;14927;51.210;6.838;2024-03-08T04:02:10;30.95;;;19.00;;
27491;SDS011;14927;51.210;6.838;2024-03-08T04:04:55;29.10;;;19.10;;
27491;SDS011;14927;51.210;6.838;2024-03-08T04:07:40;29.58;;;18.80;;
27491;SDS011;14927;51.210;6.838;2024-03-08T04:10:24;29.75;;;19.42;;
27491;SDS011;14927;51.210;6.838;2024-03-08T04:13:09;30.15;;;19.75;;
27491;SDS011;14927;51.210;6.838;2024-03-08T04:15:54;29.17;;;18.10;;
27491;SDS011;14927;51.210;6.838;2024-03-08T04:18:39;28.80;;;18.30;;
27491;SDS011;14927;51.210;6.838;2024-03-08T04:21:23;26.75;;;17.88;;
27491;SDS011;14927;51.210;6.838;2024-03-08T04:24:08;28.90;;;18.88;;
27491;SDS011;14927;51.210;6.838;2024-03-08T04:26:52;28.55;;;18.63;;
27491;SDS011;14927;51.210;6.838;2024-03-08T04:29:37;29.85;;;18.88;;
27491;SDS011;14927;51.210;6.838;2024-03-08T04:32:22;29.33;;;18.02;;
27491;SDS011;14927;51.210;6.838;2024-03-08T04:35:07;28.30;;;19.23;;
27491;SDS011;14927;51.210;6.838;2024-03-08T04:37:51;29.58;;;18.10;;
27491;SDS011;14927;51.210;6.838;2024-03-08T04:40:36;31.55;;;19.80;;
27491;SDS011;14927;51.210;6.838;2024-03-08T04:43:21;30.40;;;18.80;;
27491;SDS011;14927;51.210;6.838;2024-03-08T04:46:07;30.42;;;18.38;;
27491;SDS011;14927;51.210;6.838;2024-03-08T04:48:52;27.98;;;18.85;;
27491;SDS011;14927;51.210;6.838;2024-03-08T04:51:37;30.52;;;18.58;;
27491;SDS011;14927;51.210;6.838;2024-03-08T04:54:22;33.13;;;18.52;;
27491;SDS011;14927;51.210;6.838;2024-03-08T04:57:06;30.65;;;18.98;;
27491;SDS011;14927;51.210;6.838;2024-03-08T04:59:51;29.23;;;18.30;;
27491;SDS011;14927;51.210;6.838;2024-03-08T05:02:36;29.58;;;20.10;;
27491;SDS011;14927;51.210;6.838;2024-03-08T05:05:22;29.13;;;18.73;;
27491;SDS011;14927;51.210;6.838;2024-03-08T05:08:06;30.48;;;18.40;;
27491;SDS011;14927;51.210;6.838;2024-03-08T05:10:51;30.95;;;18.98;;
27491;SDS011;14927;51.210;6.838;2024-03-08T05:13:35;33.58;;;20.50;;
27491;SDS011;14927;51.210;6.838;2024-03-08T05:16:21;34.30;;;20.20;;
27491;SDS011;14927;51.210;6.838;2024-03-08T05:19:06;30.88;;;18.88;;
27491;SDS011;14927;51.210;6.838;2024-03-08T05:21:51;37.30;;;21.52;;
27491;SDS011;14927;51.210;6.838;2024-03-08T05:24:35;33.05;;;21.05;;
27491;SDS011;14927;51.210;6.838;2024-03-08T05:27:20;34.28;;;19.73;;
27491;SDS011;14927;51.210;6.838;2024-03-08T05:30:04;29.77;;;19.15;;
27491;SDS011;14927;51.210;6.838;2024-03-08T05:32:50;34.47;;;19.60;;
27491;SDS011;14927;51.210;6.838;2024-03-08T05:35:34;33.45;;;19.45;;
27491;SDS011;14927;51.210;6.838;2024-03-08T05:38:19;29.83;;;19.52;;
27491;SDS011;14927;51.210;6.838;2024-03-08T05:41:05;29.52;;;18.63;;
27491;SDS011;14927;51.210;6.838;2024-03-08T05:43:50;29.88;;;19.23;;
27491;SDS011;14927;51.210;6.838;2024-03-08T05:46:35;30.25;;;19.38;;
27491;SDS011;14927;51.210;6.838;2024-03-08T05:49:20;36.95;;;20.27;;
27491;SDS011;14927;51.210;6.838;2024-03-08T05:52:05;35.25;;;21.15;;
27491;SDS011;14927;51.210;6.838;2024-03-08T05:54:49;32.25;;;20.02;;
27491;SDS011;14927;51.210;6.838;2024-03-08T05:57:34;35.33;;;20.85;;
27491;SDS011;14927;51.210;6.838;2024-03-08T06:00:22;31.45;;;20.10;;
27491;SDS011;14927;51.210;6.838;2024-03-08T06:03:07;34.42;;;20.77;;
27491;SDS011;14927;51.210;6.838;2024-03-08T06:05:52;31.83;;;20.27;;
27491;SDS011;14927;51.210;6.838;2024-03-08T06:08:37;31.77;;;20.55;;
27491;SDS011;14927;51.210;6.838;2024-03-08T06:11:21;35.25;;;20.25;;
27491;SDS011;14927;51.210;6.838;2024-03-08T06:14:06;37.80;;;21.58;;
27491;SDS011;14927;51.210;6.838;2024-03-08T06:16:50;36.30;;;20.92;;
27491;SDS011;14927;51.210;6.838;2024-03-08T06:19:35;35.55;;;21.33;;
27491;SDS011;14927;51.210;6.838;2024-03-08T06:22:20;35.28;;;20.67;;
27491;SDS011;14927;51.210;6.838;2024-03-08T06:25:04;30.88;;;19.77;;
27491;SDS011;14927;51.210;6.838;2024-03-08T06:27:50;34.28;;;20.80;;
27491;SDS011;14927;51.210;6.838;2024-03-08T06:30:37;32.45;;;20.23;;
27491;SDS011;14927;51.210;6.838;2024-03-08T06:33:21;32.67;;;20.42;;
27491;SDS011;14927;51.210;6.838;2024-03-08T06:36:06;32.55;;;19.02;;
27491;SDS011;14927;51.210;6.838;2024-03-08T06:38:51;33.30;;;19.83;;
27491;SDS011;14927;51.210;6.838;2024-03-08T06:41:36;31.77;;;20.00;;
27491;SDS011;14927;51.210;6.838;2024-03-08T06:44:21;34.00;;;21.48;;
27491;SDS011;14927;51.210;6.838;2024-03-08T06:47:05;35.25;;;20.90;;
27491;SDS011;14927;51.210;6.838;2024-03-08T06:49:50;34.67;;;21.63;;
27491;SDS011;14927;51.210;6.838;2024-03-08T06:52:35;34.35;;;22.33;;
27491;SDS011;14927;51.210;6.838;2024-03-08T06:55:20;40.78;;;22.98;;
27491;SDS011;14927;51.210;6.838;2024-03-08T06:58:05;31.48;;;20.65;;
27491;SDS011;14927;51.210;6.838;2024-03-08T07:00:50;38.50;;;21.00;;
27491;SDS011;14927;51.210;6.838;2024-03-08T07:03:37;34.95;;;21.08;;
27491;SDS011;14927;51.210;6.838;2024-03-08T07:06:22;33.38;;;20.27;;
27491;SDS011;14927;51.210;6.838;2024-03-08T07:09:07;36.95;;;20.73;;
27491;SDS011;14927;51.210;6.838;2024-03-08T07:11:51;37.78;;;20.73;;
27491;SDS011;14927;51.210;6.838;2024-03-08T07:14:38;33.15;;;20.73;;
27491;SDS011;14927;51.210;6.838;2024-03-08T07:17:28;31.35;;;20.88;;
27491;SDS011;14927;51.210;6.838;2024-03-08T07:20:13;38.35;;;22.00;;
27491;SDS011;14927;51.210;6.838;2024-03-08T07:23:02;34.05;;;20.90;;
27491;SDS011;14927;51.210;6.838;2024-03-08T07:25:48;32.75;;;20.58;;
27491;SDS011;14927;51.210;6.838;2024-03-08T07:28:33;32.85;;;20.92;;
27491;SDS011;14927;51.210;6.838;2024-03-08T07:31:17;34.53;;;21.35;;
27491;SDS011;14927;51.210;6.838;2024-03-08T07:34:29;37.42;;;21.95;;
27491;SDS011;14927;51.210;6.838;2024-03-08T07:37:16;34.15;;;19.83;;
27491;SDS011;14927;51.210;6.838;2024-03-08T07:40:01;31.77;;;19.63;;
27491;SDS011;14927;51.210;6.838;2024-03-08T07:42:46;32.70;;;20.48;;
27491;SDS011;14927;51.210;6.838;2024-03-08T07:45:31;31.42;;;19.85;;
27491;SDS011;14927;51.210;6.838;2024-03-08T07:48:15;36.90;;;20.98;;
27491;SDS011;14927;51.210;6.838;2024-03-08T07:51:00;32.22;;;20.50;;
27491;SDS011;14927;51.210;6.838;2024-03-08T07:53:44;31.58;;;20.33;;
27491;SDS011;14927;51.210;6.838;2024-03-08T07:56:29;29.17;;;19.08;;
27491;SDS011;14927;51.210;6.838;2024-03-08T07:59:16;31.38;;;20.08;;
27491;SDS011;14927;51.210;6.838;2024-03-08T08:02:01;35.22;;;19.88;;
27491;SDS011;14927;51.210;6.838;2024-03-08T08:04:45;28.52;;;19.15;;
27491;SDS011;14927;51.210;6.838;2024-03-08T08:07:30;27.80;;;18.92;;
27491;SDS011;14927;51.210;6.838;2024-03-08T08:10:15;27.73;;;18.35;;
27491;SDS011;14927;51.210;6.838;2024-03-08T08:13:06;32.30;;;19.88;;
27491;SDS011;14927;51.210;6.838;2024-03-08T08:15:51;32.75;;;18.85;;
27491;SDS011;14927;51.210;6.838;2024-03-08T08:18:35;26.45;;;17.98;;
27491;SDS011;14927;51.210;6.838;2024-03-08T08:21:20;30.33;;;18.77;;
27491;SDS011;14927;51.210;6.838;2024-03-08T08:24:06;30.33;;;18.60;;
27491;SDS011;14927;51.210;6.838;2024-03-08T08:26:50;29.48;;;17.40;;
27491;SDS011;14927;51.210;6.838;2024-03-08T08:29:35;25.95;;;17.17;;
27491;SDS011;14927;51.210;6.838;2024-03-08T08:32:20;27.70;;;16.13;;
27491;SDS011;14927;51.210;6.838;2024-03-08T08:35:05;23.48;;;15.93;;
27491;SDS011;14927;51.210;6.838;2024-03-08T08:37:51;22.70;;;15.80;;
27491;SDS011;14927;51.210;6.838;2024-03-08T08:40:35;24.98;;;16.00;;
27491;SDS011;14927;51.210;6.838;2024-03-08T08:43:20;24.60;;;16.08;;
27491;SDS011;14927;51.210;6.838;2024-03-08T08:46:08;23.50;;;16.25;;
27491;SDS011;14927;51.210;6.838;2024-03-08T08:48:52;27.98;;;15.88;;
27491;SDS011;14927;51.210;6.838;2024-03-08T08:51:37;24.35;;;14.98;;
27491;SDS011;14927;51.210;6.838;2024-03-08T08:54:22;22.35;;;15.10;;
27491;SDS011;14927;51.210;6.838;2024-03-08T08:57:08;23.88;;;14.95;;
27491;SDS011;14927;51.210;6.838;2024-03-08T08:59:53;24.73;;;15.38;;
27491;SDS011;14927;51.210;6.838;2024-03-08T09:02:39;23.75;;;15.18;;
27491;SDS011;14927;51.210;6.838;2024-03-08T09:05:23;19.30;;;13.88;;
27491;SDS011;14927;51.210;6.838;2024-03-08T09:08:08;20.08;;;14.35;;
27491;SDS011;14927;51.210;6.838;2024-03-08T09:10:53;24.23;;;15.13;;
27491;SDS011;14927;51.210;6.838;2024-03-08T09:13:37;21.23;;;14.35;;
27491;SDS011;14927;51.210;6.838;2024-03-08T09:16:22;24.42;;;15.90;;
27491;SDS011;14927;51.210;6.838;2024-03-08T09:19:07;24.17;;;15.05;;
27491;SDS011;14927;51.210;6.838;2024-03-08T09:21:54;22.30;;;14.60;;
27491;SDS011;14927;51.210;6.838;2024-03-08T09:24:39;22.05;;;14.32;;
27491;SDS011;14927;51.210;6.838;2024-03-08T09:27:24;18.80;;;13.63;;
27491;SDS011;14927;51.210;6.838;2024-03-08T09:30:08;22.30;;;14.30;;
27491;SDS011;14927;51.210;6.838;2024-03-08T09:32:56;21.38;;;14.00;;
27491;SDS011;14927;51.210;6.838;2024-03-08T09:35:41;21.60;;;13.85;;
27491;SDS011;14927;51.210;6.838;2024-03-08T09:38:26;21.55;;;13.98;;
27491;SDS011;14927;51.210;6.838;2024-03-08T09:41:10;22.92;;;15.05;;
27491;SDS011;14927;51.210;6.838;2024-03-08T09:43:56;24.73;;;14.95;;
27491;SDS011;14927;51.210;6.838;2024-03-08T09:46:43;22.83;;;14.63;;
27491;SDS011;14927;51.210;6.838;2024-03-08T09:49:31;22.80;;;14.05;;
27491;SDS011;14927;51.210;6.838;2024-03-08T09:52:15;21.60;;;14.27;;
27491;SDS011;14927;51.210;6.838;2024-03-08T09:55:00;21.50;;;14.23;;
27491;SDS011;14927;51.210;6.838;2024-03-08T09:57:45;20.98;;;13.50;;
27491;SDS011;14927;51.210;6.838;2024-03-08T10:00:51;20.20;;;13.07;;
27491;SDS011;14927;51.210;6.838;2024-03-08T10:03:36;19.33;;;12.68;;
27491;SDS011;14927;51.210;6.838;2024-03-08T10:06:22;20.75;;;14.57;;
27491;SDS011;14927;51.210;6.838;2024-03-08T10:09:07;18.38;;;13.20;;
27491;SDS011;14927;51.210;6.838;2024-03-08T10:11:57;20.80;;;13.00;;
27491;SDS011;14927;51.210;6.838;2024-03-08T10:14:42;19.10;;;13.50;;
27491;SDS011;14927;51.210;6.838;2024-03-08T10:17:26;17.35;;;12.23;;
27491;SDS011;14927;51.210;6.838;2024-03-08T10:20:16;19.70;;;12.25;;
27491;SDS011;14927;51.210;6.838;2024-03-08T10:23:02;18.15;;;12.27;;
27491;SDS011;14927;51.210;6.838;2024-03-08T10:25:48;17.42;;;12.45;;
27491;SDS011;14927;51.210;6.838;2024-03-08T10:28:33;19.80;;;12.50;;
27491;SDS011;14927;51.210;6.838;2024-03-08T10:31:21;16.70;;;11.63;;
27491;SDS011;14927;51.210;6.838;2024-03-08T10:34:06;21.25;;;12.45;;
27491;SDS011;14927;51.210;6.838;2024-03-08T10:36:51;18.67;;;11.90;;
27491;SDS011;14927;51.210;6.838;2024-03-08T10:39:36;23.02;;;13.20;;
27491;SDS011;14927;51.210;6.838;2024-03-08T10:42:21;21.23;;;13.82;;
27491;SDS011;14927;51.210;6.838;2024-03-08T10:45:15;18.23;;;11.95;;
27491;SDS011;14927;51.210;6.838;2024-03-08T10:48:31;16.48;;;11.13;;
27491;SDS011;14927;51.210;6.838;2024-03-08T10:51:16;16.85;;;11.18;;
27491;SDS011;14927;51.210;6.838;2024-03-08T10:54:02;18.15;;;11.57;;
27491;SDS011;14927;51.210;6.838;2024-03-08T10:56:48;18.25;;;9.98;;
27491;SDS011;14927;51.210;6.838;2024-03-08T10:59:34;14.10;;;9.73;;
27491;SDS011;14927;51.210;6.838;2024-03-08T11:02:19;12.90;;;9.32;;
27491;SDS011;14927;51.210;6.838;2024-03-08T11:05:03;13.43;;;9.93;;
27491;SDS011;14927;51.210;6.838;2024-03-08T11:07:49;13.60;;;9.25;;
27491;SDS011;14927;51.210;6.838;2024-03-08T11:10:35;13.10;;;9.02;;
27491;SDS011;14927;51.210;6.838;2024-03-08T11:13:36;13.57;;;8.68;;
27491;SDS011;14927;51.210;6.838;2024-03-08T11:21:59;15.77;;;9.23;;
27491;SDS011;14927;51.210;6.838;2024-03-08T11:27:30;16.02;;;8.52;;
27491;SDS011;14927;51.210;6.838;2024-03-08T11:30:16;13.60;;;8.95;;
27491;SDS011;14927;51.210;6.838;2024-03-08T11:33:10;11.63;;;8.02;;
27491;SDS011;14927;51.210;6.838;2024-03-08T11:36:03;14.15;;;8.13;;
27491;SDS011;14927;51.210;6.838;2024-03-08T11:39:00;13.38;;;9.05;;
27491;SDS011;14927;51.210;6.838;2024-03-08T11:41:53;12.00;;;8.52;;
27491;SDS011;14927;51.210;6.838;2024-03-08T11:44:37;11.63;;;7.78;;
27491;SDS011;14927;51.210;6.838;2024-03-08T11:47:24;9.63;;;7.40;;
27491;SDS011;14927;51.210;6.838;2024-03-08T11:50:10;13.50;;;8.35;;
27491;SDS011;14927;51.210;6.838;2024-03-08T11:53:05;10.35;;;7.85;;
27491;SDS011;14927;51.210;6.838;2024-03-08T11:55:49;12.48;;;8.52;;
27491;SDS011;14927;51.210;6.838;2024-03-08T11:58:35;12.13;;;8.48;;
27491;SDS011;14927;51.210;6.838;2024-03-08T12:01:22;11.35;;;8.90;;
27491;SDS011;14927;51.210;6.838;2024-03-08T12:04:11;12.10;;;8.50;;
27491;SDS011;14927;51.210;6.838;2024-03-08T12:07:02;10.88;;;8.18;;
27491;SDS011;14927;51.210;6.838;2024-03-08T12:13:08;13.98;;;8.63;;
27491;SDS011;14927;51.210;6.838;2024-03-08T12:15:57;13.00;;;8.98;;
27491;SDS011;14927;51.210;6.838;2024-03-08T12:18:42;10.13;;;7.60;;
27491;SDS011;14927;51.210;6.838;2024-03-08T12:21:26;11.65;;;7.97;;
27491;SDS011;14927;51.210;6.838;2024-03-08T12:24:14;9.48;;;7.57;;
27491;SDS011;14927;51.210;6.838;2024-03-08T12:27:20;10.52;;;7.97;;
27491;SDS011;14927;51.210;6.838;2024-03-08T12:30:17;13.07;;;7.03;;
27491;SDS011;14927;51.210;6.838;2024-03-08T12:33:17;11.15;;;8.00;;
27491;SDS011;14927;51.210;6.838;2024-03-08T12:36:02;9.90;;;7.28;;
27491;SDS011;14927;51.210;6.838;2024-03-08T12:38:50;10.77;;;8.23;;
27491;SDS011;14927;51.210;6.838;2024-03-08T12:41:41;10.15;;;7.30;;
27491;SDS011;14927;51.210;6.838;2024-03-08T12:44:27;10.75;;;7.07;;
27491;SDS011;14927;51.210;6.838;2024-03-08T12:47:12;8.50;;;6.32;;
27491;SDS011;14927;51.210;6.838;2024-03-08T12:49:57;9.60;;;6.18;;
27491;SDS011;14927;51.210;6.838;2024-03-08T12:52:41;10.00;;;7.03;;
27491;SDS011;14927;51.210;6.838;2024-03-08T12:55:26;10.20;;;6.90;;
27491;SDS011;14927;51.210;6.838;2024-03-08T12:58:11;12.90;;;7.38;;
27491;SDS011;14927;51.210;6.838;2024-03-08T13:00:56;10.52;;;7.22;;
27491;SDS011;14927;51.210;6.838;2024-03-08T13:03:41;9.57;;;7.45;;
27491;SDS011;14927;51.210;6.838;2024-03-08T13:06:27;8.82;;;7.13;;
27491;SDS011;14927;51.210;6.838;2024-03-08T13:09:12;8.63;;;6.82;;
27491;SDS011;14927;51.210;6.838;2024-03-08T13:11:57;10.38;;;7.30;;
27491;SDS011;14927;51.210;6.838;2024-03-08T13:14:44;10.20;;;7.25;;
27491;SDS011;14927;51.210;6.838;2024-03-08T13:17:29;9.95;;;7.40;;
27491;SDS011;14927;51.210;6.838;2024-03-08T13:20:14;8.90;;;7.13;;
27491;SDS011;14927;51.210;6.838;2024-03-08T13:23:03;13.38;;;8.15;;
27491;SDS011;14927;51.210;6.838;2024-03-08T13:25:49;9.27;;;7.50;;
27491;SDS011;14927;51.210;6.838;2024-03-08T13:28:34;8.70;;;7.00;;
27491;SDS011;14927;51.210;6.838;2024-03-08T13:31:21;9.10;;;6.60;;
27491;SDS011;14927;51.210;6.838;2024-03-08T13:34:06;13.25;;;7.70;;
27491;SDS011;14927;51.210;6.838;2024-03-08T13:36:50;10.13;;;7.35;;
27491;SDS011;14927;51.210;6.838;2024-03-08T13:39:36;8.77;;;6.60;;
27491;SDS011;14927;51.210;6.838;2024-03-08T13:42:29;8.88;;;7.40;;
27491;SDS011;14927;51.210;6.838;2024-03-08T13:45:14;9.63;;;7.72;;
27491;SDS011;14927;51.210;6.838;2024-03-08T13:48:06;10.32;;;8.07;;
27491;SDS011;14927;51.210;6.838;2024-03-08T13:50:50;10.35;;;7.75;;
27491;SDS011;14927;51.210;6.838;2024-03-08T13:53:35;7.60;;;6.45;;
27491;SDS011;14927;51.210;6.838;2024-03-08T13:56:20;8.55;;;7.00;;
27491;SDS011;14927;51.210;6.838;2024-03-08T13:59:05;9.77;;;6.30;;
27491;SDS011;14927;51.210;6.838;2024-03-08T14:01:50;7.53;;;6.05;;
27491;SDS011;14927;51.210;6.838;2024-03-08T14:04:34;7.85;;;6.20;;
27491;SDS011;14927;51.210;6.838;2024-03-08T14:07:19;7.72;;;6.35;;
27491;SDS011;14927;51.210;6.838;2024-03-08T14:10:04;9.27;;;6.35;;
27491;SDS011;14927;51.210;6.838;2024-03-08T14:12:50;8.27;;;5.65;;
27491;SDS011;14927;51.210;6.838;2024-03-08T14:15:35;9.38;;;7.05;;
27491;SDS011;14927;51.210;6.838;2024-03-08T14:18:19;8.70;;;6.97;;
27491;SDS011;14927;51.210;6.838;2024-03-08T14:21:04;9.25;;;7.00;;
27491;SDS011;14927;51.210;6.838;2024-03-08T14:23:52;8.48;;;6.88;;
27491;SDS011;14927;51.210;6.838;2024-03-08T14:26:36;8.07;;;6.47;;
27491;SDS011;14927;51.210;6.838;2024-03-08T14:29:22;9.75;;;6.50;;
27491;SDS011;14927;51.210;6.838;2024-03-08T14:32:07;8.13;;;6.65;;
27491;SDS011;14927;51.210;6.838;2024-03-08T14:34:52;7.95;;;6.60;;
27491;SDS011;14927;51.210;6.838;2024-03-08T14:37:38;9.40;;;7.40;;
27491;SDS011;14927;51.210;6.838;2024-03-08T14:40:26;8.10;;;6.78;;
27491;SDS011;14927;51.210;6.838;2024-03-08T14:43:11;7.88;;;6.97;;
27491;SDS011;14927;51.210;6.838;2024-03-08T14:45:55;10.02;;;6.55;;
27491;SDS011;14927;51.210;6.838;2024-03-08T14:48:40;8.73;;;7.18;;
27491;SDS011;14927;51.210;6.838;2024-03-08T14:51:25;8.40;;;7.13;;
27491;SDS011;14927;51.210;6.838;2024-03-08T14:54:12;9.90;;;7.40;;
27491;SDS011;14927;51.210;6.838;2024-03-08T14:56:57;9.43;;;7.65;;
27491;SDS011;14927;51.210;6.838;2024-03-08T14:59:41;8.68;;;6.85;;
27491;SDS011;14927;51.210;6.838;2024-03-08T15:02:27;7.90;;;7.10;;
27491;SDS011;14927;51.210;6.838;2024-03-08T15:05:11;8.93;;;7.43;;
27491;SDS011;14927;51.210;6.838;2024-03-08T15:07:58;12.73;;;8.30;;
27491;SDS011;14927;51.210;6.838;2024-03-08T15:10:53;8.70;;;7.35;;
27491;SDS011;14927;51.210;6.838;2024-03-08T15:13:42;10.52;;;8.13;;
27491;SDS011;14927;51.210;6.838;2024-03-08T15:16:28;10.43;;;8.38;;
27491;SDS011;14927;51.210;6.838;2024-03-08T15:19:13;17.30;;;8.35;;
27491;SDS011;14927;51.210;6.838;2024-03-08T15:21:58;11.05;;;8.80;;
27491;SDS011;14927;51.210;6.838;2024-03-08T15:24:43;12.88;;;8.52;;
27491;SDS011;14927;51.210;6.838;2024-03-08T15:27:28;9.82;;;8.20;;
27491;SDS011;14927;51.210;6.838;2024-03-08T15:30:13;10.55;;;8.75;;
27491;SDS011;14927;51.210;6.838;2024-03-08T15:33:00;14.57;;;9.32;;
27491;SDS011;14927;51.210;6.838;2024-03-08T15:35:47;13.82;;;9.95;;
27491;SDS011;14927;51.210;6.838;2024-03-08T15:38:34;11.57;;;9.30;;
27491;SDS011;14927;51.210;6.838;2024-03-08T15:41:20;12.45;;;10.20;;
27491;SDS011;14927;51.210;6.838;2024-03-08T15:44:05;13.95;;;9.70;;
27491;SDS011;14927;51.210;6.838;2024-03-08T15:46:49;12.60;;;9.77;;
27491;SDS011;14927;51.210;6.838;2024-03-08T15:49:34;13.82;;;10.02;;
27491;SDS011;14927;51.210;6.838;2024-03-08T15:52:18;12.65;;;9.45;;
27491;SDS011;14927;51.210;6.838;2024-03-08T15:55:03;14.85;;;10.38;;
27491;SDS011;14927;51.210;6.838;2024-03-08T15:57:49;14.98;;;10.18;;
27491;SDS011;14927;51.210;6.838;2024-03-08T16:00:34;12.93;;;9.68;;
27491;SDS011;14927;51.210;6.838;2024-03-08T16:03:29;12.35;;;9.18;;
27491;SDS011;14927;51.210;6.838;2024-03-08T16:06:14;13.40;;;9.60;;
27491;SDS011;14927;51.210;6.838;2024-03-08T16:09:06;15.98;;;10.07;;
27491;SDS011;14927;51.210;6.838;2024-03-08T16:11:59;14.68;;;10.07;;
27491;SDS011;14927;51.210;6.838;2024-03-08T16:14:44;12.57;;;9.85;;
27491;SDS011;14927;51.210;6.838;2024-03-08T16:17:29;15.18;;;10.80;;
27491;SDS011;14927;51.210;6.838;2024-03-08T16:20:17;13.02;;;9.82;;
27491;SDS011;14927;51.210;6.838;2024-03-08T16:23:01;13.52;;;9.70;;
27491;SDS011;14927;51.210;6.838;2024-03-08T16:25:48;12.93;;;9.52;;
27491;SDS011;14927;51.210;6.838;2024-03-08T16:28:32;12.98;;;9.10;;
27491;SDS011;14927;51.210;6.838;2024-03-08T16:34:08;12.38;;;9.05;;
27491;SDS011;14927;51.210;6.838;2024-03-08T16:36:53;13.23;;;9.85;;